sensor_id;sensor_type;location;lat;lon;timestamp;P1;durP1;ratioP1;P2;durP2;ratioP2
10469;SDS011;5282;47.052;15.458;2022-09-02T00:01:24;2.30;;;1.70;;
10469;SDS011;5282;47.052;15.458;2022-09-02T00:03:58;1.43;;;1.33;;
10469;SDS011;5282;47.052;15.458;2022-09-02T00:06:30;2.10;;;1.50;;
10469;SDS011;5282;47.052;15.458;2022-09-02T00:09:10;2.70;;;1.70;;
10469;SDS011;5282;47.052;15.458;2022-09-02T00:11:40;1.70;;;1.60;;
10469;SDS011;5282;47.052;15.458;2022-09-02T00:14:10;1.40;;;1.40;;
10469;SDS011;5282;47.052;15.458;2022-09-02T00:16:40;1.63;;;1.53;;
10469;SDS011;5282;47.052;15.458;2022-09-02T00:19:10;1.60;;;1.50;;
10469;SDS011;5282;47.052;15.458;2022-09-02T00:21:38;3.83;;;1.70;;
10469;SDS011;5282;47.052;15.458;2022-09-02T00:24:06;1.70;;;1.60;;
10469;SDS011;5282;47.052;15.458;2022-09-02T00:26:34;1.73;;;1.50;;
10469;SDS011;5282;47.052;15.458;2022-09-02T00:29:01;1.50;;;1.50;;
10469;SDS011;5282;47.052;15.458;2022-09-02T00:31:30;1.97;;;1.87;;
10469;SDS011;5282;47.052;15.458;2022-09-02T00:34:00;1.60;;;1.60;;
10469;SDS011;5282;47.052;15.458;2022-09-02T00:36:27;2.00;;;1.50;;
10469;SDS011;5282;47.052;15.458;2022-09-02T00:38:59;1.33;;;1.33;;
10469;SDS011;5282;47.052;15.458;2022-09-02T00:41:27;1.80;;;1.70;;
10469;SDS011;5282;47.052;15.458;2022-09-02T00:44:04;1.63;;;1.53;;
10469;SDS011;5282;47.052;15.458;2022-09-02T00:46:38;1.57;;;1.50;;
10469;SDS011;5282;47.052;15.458;2022-09-02T00:49:08;2.93;;;1.57;;
10469;SDS011;5282;47.052;15.458;2022-09-02T00:51:40;1.97;;;1.50;;
10469;SDS011;5282;47.052;15.458;2022-09-02T00:54:10;3.00;;;1.73;;
10469;SDS011;5282;47.052;15.458;2022-09-02T00:56:41;1.57;;;1.50;;
10469;SDS011;5282;47.052;15.458;2022-09-02T00:59:13;1.57;;;1.57;;
10469;SDS011;5282;47.052;15.458;2022-09-02T01:01:44;2.47;;;1.50;;
10469;SDS011;5282;47.052;15.458;2022-09-02T01:04:15;3.80;;;1.70;;
10469;SDS011;5282;47.052;15.458;2022-09-02T01:06:43;1.37;;;1.37;;
10469;SDS011;5282;47.052;15.458;2022-09-02T01:09:11;1.50;;;1.40;;
10469;SDS011;5282;47.052;15.458;2022-09-02T01:11:43;1.67;;;1.57;;
10469;SDS011;5282;47.052;15.458;2022-09-02T01:14:13;1.40;;;1.40;;
10469;SDS011;5282;47.052;15.458;2022-09-02T01:16:43;1.77;;;1.67;;
10469;SDS011;5282;47.052;15.458;2022-09-02T01:19:17;3.53;;;1.60;;
10469;SDS011;5282;47.052;15.458;2022-09-02T01:21:50;1.93;;;1.60;;
10469;SDS011;5282;47.052;15.458;2022-09-02T01:24:20;2.97;;;2.00;;
10469;SDS011;5282;47.052;15.458;2022-09-02T01:26:51;1.80;;;1.73;;
10469;SDS011;5282;47.052;15.458;2022-09-02T01:29:19;1.80;;;1.70;;
10469;SDS011;5282;47.052;15.458;2022-09-02T01:31:48;1.73;;;1.63;;
10469;SDS011;5282;47.052;15.458;2022-09-02T01:34:16;1.70;;;1.60;;
10469;SDS011;5282;47.052;15.458;2022-09-02T01:36:44;1.53;;;1.43;;
10469;SDS011;5282;47.052;15.458;2022-09-02T01:39:13;1.80;;;1.60;;
10469;SDS011;5282;47.052;15.458;2022-09-02T01:41:45;1.70;;;1.60;;
10469;SDS011;5282;47.052;15.458;2022-09-02T01:44:14;1.80;;;1.80;;
10469;SDS011;5282;47.052;15.458;2022-09-02T01:46:42;1.77;;;1.53;;
10469;SDS011;5282;47.052;15.458;2022-09-02T01:49:13;1.80;;;1.70;;
10469;SDS011;5282;47.052;15.458;2022-09-02T01:51:42;1.80;;;1.70;;
10469;SDS011;5282;47.052;15.458;2022-09-02T01:54:14;2.23;;;1.70;;
10469;SDS011;5282;47.052;15.458;2022-09-02T01:56:49;1.50;;;1.40;;
10469;SDS011;5282;47.052;15.458;2022-09-02T01:59:20;1.97;;;1.40;;
10469;SDS011;5282;47.052;15.458;2022-09-02T02:01:51;1.47;;;1.47;;
10469;SDS011;5282;47.052;15.458;2022-09-02T02:04:19;2.00;;;1.53;;
10469;SDS011;5282;47.052;15.458;2022-09-02T02:06:50;1.70;;;1.60;;
10469;SDS011;5282;47.052;15.458;2022-09-02T02:09:19;1.83;;;1.50;;
10469;SDS011;5282;47.052;15.458;2022-09-02T02:11:54;1.43;;;1.43;;
10469;SDS011;5282;47.052;15.458;2022-09-02T02:14:25;2.10;;;1.50;;
10469;SDS011;5282;47.052;15.458;2022-09-02T02:16:55;1.90;;;1.80;;
10469;SDS011;5282;47.052;15.458;2022-09-02T02:19:42;1.73;;;1.63;;
10469;SDS011;5282;47.052;15.458;2022-09-02T02:22:18;1.53;;;1.53;;
10469;SDS011;5282;47.052;15.458;2022-09-02T02:24:47;3.67;;;1.33;;
10469;SDS011;5282;47.052;15.458;2022-09-02T02:27:14;1.50;;;1.50;;
10469;SDS011;5282;47.052;15.458;2022-09-02T02:29:41;1.63;;;1.47;;
10469;SDS011;5282;47.052;15.458;2022-09-02T02:32:12;1.50;;;1.40;;
10469;SDS011;5282;47.052;15.458;2022-09-02T02:34:39;1.77;;;1.63;;
10469;SDS011;5282;47.052;15.458;2022-09-02T02:37:08;1.50;;;1.50;;
10469;SDS011;5282;47.052;15.458;2022-09-02T02:39:37;2.30;;;1.60;;
10469;SDS011;5282;47.052;15.458;2022-09-02T02:42:09;1.93;;;1.70;;
10469;SDS011;5282;47.052;15.458;2022-09-02T02:44:37;5.60;;;1.73;;
10469;SDS011;5282;47.052;15.458;2022-09-02T02:47:08;1.83;;;1.40;;
10469;SDS011;5282;47.052;15.458;2022-09-02T02:49:40;1.70;;;1.60;;
10469;SDS011;5282;47.052;15.458;2022-09-02T02:52:12;1.63;;;1.53;;
10469;SDS011;5282;47.052;15.458;2022-09-02T02:54:44;2.63;;;1.50;;
10469;SDS011;5282;47.052;15.458;2022-09-02T02:57:14;1.80;;;1.70;;
10469;SDS011;5282;47.052;15.458;2022-09-02T02:59:41;2.10;;;1.77;;
10469;SDS011;5282;47.052;15.458;2022-09-02T03:02:09;2.07;;;1.77;;
10469;SDS011;5282;47.052;15.458;2022-09-02T03:04:55;2.50;;;1.93;;
10469;SDS011;5282;47.052;15.458;2022-09-02T03:07:42;1.73;;;1.37;;
10469;SDS011;5282;47.052;15.458;2022-09-02T03:10:29;1.73;;;1.63;;
10469;SDS011;5282;47.052;15.458;2022-09-02T03:13:18;1.93;;;1.83;;
10469;SDS011;5282;47.052;15.458;2022-09-02T03:16:05;1.67;;;1.67;;
10469;SDS011;5282;47.052;15.458;2022-09-02T03:18:35;2.93;;;1.80;;
10469;SDS011;5282;47.052;15.458;2022-09-02T03:21:05;2.10;;;1.93;;
10469;SDS011;5282;47.052;15.458;2022-09-02T03:23:37;1.80;;;1.70;;
10469;SDS011;5282;47.052;15.458;2022-09-02T03:26:10;1.80;;;1.53;;
10469;SDS011;5282;47.052;15.458;2022-09-02T03:28:42;2.07;;;1.97;;
10469;SDS011;5282;47.052;15.458;2022-09-02T03:31:12;1.87;;;1.77;;
10469;SDS011;5282;47.052;15.458;2022-09-02T03:33:43;1.97;;;1.70;;
10469;SDS011;5282;47.052;15.458;2022-09-02T03:36:17;2.60;;;1.60;;
10469;SDS011;5282;47.052;15.458;2022-09-02T03:38:47;2.00;;;1.90;;
10469;SDS011;5282;47.052;15.458;2022-09-02T03:41:15;2.73;;;2.20;;
10469;SDS011;5282;47.052;15.458;2022-09-02T03:43:47;1.93;;;1.70;;
10469;SDS011;5282;47.052;15.458;2022-09-02T03:46:14;3.03;;;1.97;;
10469;SDS011;5282;47.052;15.458;2022-09-02T03:48:42;1.93;;;1.80;;
10469;SDS011;5282;47.052;15.458;2022-09-02T03:51:09;2.60;;;2.00;;
10469;SDS011;5282;47.052;15.458;2022-09-02T03:53:38;1.80;;;1.80;;
10469;SDS011;5282;47.052;15.458;2022-09-02T03:56:06;2.00;;;1.90;;
10469;SDS011;5282;47.052;15.458;2022-09-02T03:58:40;1.77;;;1.50;;
10469;SDS011;5282;47.052;15.458;2022-09-02T04:01:16;1.80;;;1.70;;
10469;SDS011;5282;47.052;15.458;2022-09-02T04:04:05;2.47;;;1.83;;
10469;SDS011;5282;47.052;15.458;2022-09-02T04:06:39;3.13;;;1.90;;
10469;SDS011;5282;47.052;15.458;2022-09-02T04:09:12;2.20;;;2.10;;
10469;SDS011;5282;47.052;15.458;2022-09-02T04:11:54;3.93;;;1.97;;
10469;SDS011;5282;47.052;15.458;2022-09-02T04:14:33;2.10;;;1.90;;
10469;SDS011;5282;47.052;15.458;2022-09-02T04:17:03;1.93;;;1.77;;
10469;SDS011;5282;47.052;15.458;2022-09-02T04:19:50;2.10;;;1.90;;
10469;SDS011;5282;47.052;15.458;2022-09-02T04:22:20;2.33;;;1.90;;
10469;SDS011;5282;47.052;15.458;2022-09-02T04:24:53;1.90;;;1.80;;
10469;SDS011;5282;47.052;15.458;2022-09-02T04:27:39;2.00;;;1.90;;
10469;SDS011;5282;47.052;15.458;2022-09-02T04:30:07;2.20;;;2.00;;
10469;SDS011;5282;47.052;15.458;2022-09-02T04:32:37;4.43;;;2.40;;
10469;SDS011;5282;47.052;15.458;2022-09-02T04:35:04;4.83;;;2.30;;
10469;SDS011;5282;47.052;15.458;2022-09-02T04:37:31;2.20;;;2.10;;
10469;SDS011;5282;47.052;15.458;2022-09-02T04:40:00;1.93;;;1.93;;
10469;SDS011;5282;47.052;15.458;2022-09-02T04:42:30;2.90;;;2.43;;
10469;SDS011;5282;47.052;15.458;2022-09-02T04:44:57;2.50;;;2.30;;
10469;SDS011;5282;47.052;15.458;2022-09-02T04:47:25;5.23;;;3.67;;
10469;SDS011;5282;47.052;15.458;2022-09-02T04:49:56;3.07;;;2.77;;
10469;SDS011;5282;47.052;15.458;2022-09-02T04:52:23;2.83;;;2.63;;
10469;SDS011;5282;47.052;15.458;2022-09-02T04:54:53;2.30;;;1.80;;
10469;SDS011;5282;47.052;15.458;2022-09-02T04:57:21;3.40;;;2.20;;
10469;SDS011;5282;47.052;15.458;2022-09-02T04:59:50;2.33;;;2.20;;
10469;SDS011;5282;47.052;15.458;2022-09-02T05:02:17;2.53;;;2.23;;
10469;SDS011;5282;47.052;15.458;2022-09-02T05:04:45;2.30;;;2.10;;
10469;SDS011;5282;47.052;15.458;2022-09-02T05:07:13;2.50;;;2.23;;
10469;SDS011;5282;47.052;15.458;2022-09-02T05:09:40;3.00;;;2.70;;
10469;SDS011;5282;47.052;15.458;2022-09-02T05:12:07;3.13;;;2.27;;
10469;SDS011;5282;47.052;15.458;2022-09-02T05:14:35;2.90;;;2.57;;
10469;SDS011;5282;47.052;15.458;2022-09-02T05:17:05;3.00;;;2.80;;
10469;SDS011;5282;47.052;15.458;2022-09-02T05:19:31;3.67;;;2.70;;
10469;SDS011;5282;47.052;15.458;2022-09-02T05:21:59;2.73;;;2.43;;
10469;SDS011;5282;47.052;15.458;2022-09-02T05:24:27;2.50;;;2.40;;
10469;SDS011;5282;47.052;15.458;2022-09-02T05:26:54;3.10;;;2.80;;
10469;SDS011;5282;47.052;15.458;2022-09-02T05:29:21;3.53;;;2.90;;
10469;SDS011;5282;47.052;15.458;2022-09-02T05:31:48;2.70;;;2.50;;
10469;SDS011;5282;47.052;15.458;2022-09-02T05:34:15;4.47;;;2.43;;
10469;SDS011;5282;47.052;15.458;2022-09-02T05:36:42;2.80;;;2.33;;
10469;SDS011;5282;47.052;15.458;2022-09-02T05:39:09;2.33;;;2.17;;
10469;SDS011;5282;47.052;15.458;2022-09-02T05:41:38;2.37;;;2.27;;
10469;SDS011;5282;47.052;15.458;2022-09-02T05:44:05;2.70;;;2.00;;
10469;SDS011;5282;47.052;15.458;2022-09-02T05:46:32;2.53;;;2.40;;
10469;SDS011;5282;47.052;15.458;2022-09-02T05:49:00;6.33;;;2.30;;
10469;SDS011;5282;47.052;15.458;2022-09-02T05:51:37;2.20;;;2.00;;
10469;SDS011;5282;47.052;15.458;2022-09-02T05:54:07;2.60;;;2.40;;
10469;SDS011;5282;47.052;15.458;2022-09-02T05:56:37;3.20;;;2.40;;
10469;SDS011;5282;47.052;15.458;2022-09-02T05:59:05;4.23;;;2.40;;
10469;SDS011;5282;47.052;15.458;2022-09-02T06:01:33;2.50;;;2.30;;
10469;SDS011;5282;47.052;15.458;2022-09-02T06:04:01;2.80;;;2.07;;
10469;SDS011;5282;47.052;15.458;2022-09-02T06:06:28;3.03;;;1.70;;
10469;SDS011;5282;47.052;15.458;2022-09-02T06:08:56;2.23;;;2.13;;
10469;SDS011;5282;47.052;15.458;2022-09-02T06:11:23;2.50;;;2.27;;
10469;SDS011;5282;47.052;15.458;2022-09-02T06:13:52;2.20;;;1.80;;
10469;SDS011;5282;47.052;15.458;2022-09-02T06:16:20;1.90;;;1.80;;
10469;SDS011;5282;47.052;15.458;2022-09-02T06:18:48;2.40;;;2.20;;
10469;SDS011;5282;47.052;15.458;2022-09-02T06:21:15;2.40;;;2.10;;
10469;SDS011;5282;47.052;15.458;2022-09-02T06:23:45;3.23;;;1.80;;
10469;SDS011;5282;47.052;15.458;2022-09-02T06:26:13;2.20;;;1.90;;
10469;SDS011;5282;47.052;15.458;2022-09-02T06:28:40;2.23;;;2.13;;
10469;SDS011;5282;47.052;15.458;2022-09-02T06:31:10;1.90;;;1.80;;
10469;SDS011;5282;47.052;15.458;2022-09-02T06:33:39;1.70;;;1.60;;
10469;SDS011;5282;47.052;15.458;2022-09-02T06:36:07;2.10;;;1.90;;
10469;SDS011;5282;47.052;15.458;2022-09-02T06:38:36;3.47;;;1.70;;
10469;SDS011;5282;47.052;15.458;2022-09-02T06:41:04;1.90;;;1.80;;
10469;SDS011;5282;47.052;15.458;2022-09-02T06:43:32;2.43;;;2.23;;
10469;SDS011;5282;47.052;15.458;2022-09-02T06:45:59;3.20;;;2.00;;
10469;SDS011;5282;47.052;15.458;2022-09-02T06:48:28;3.63;;;2.07;;
10469;SDS011;5282;47.052;15.458;2022-09-02T06:50:54;3.53;;;2.20;;
10469;SDS011;5282;47.052;15.458;2022-09-02T06:53:22;1.87;;;1.77;;
10469;SDS011;5282;47.052;15.458;2022-09-02T06:55:49;2.53;;;2.30;;
10469;SDS011;5282;47.052;15.458;2022-09-02T06:58:17;2.10;;;2.00;;
10469;SDS011;5282;47.052;15.458;2022-09-02T07:00:45;1.83;;;1.73;;
10469;SDS011;5282;47.052;15.458;2022-09-02T07:03:11;2.27;;;2.10;;
10469;SDS011;5282;47.052;15.458;2022-09-02T07:06:01;3.83;;;2.00;;
10469;SDS011;5282;47.052;15.458;2022-09-02T07:08:34;2.60;;;2.07;;
10469;SDS011;5282;47.052;15.458;2022-09-02T07:11:02;2.33;;;2.23;;
10469;SDS011;5282;47.052;15.458;2022-09-02T07:13:30;1.70;;;1.60;;
10469;SDS011;5282;47.052;15.458;2022-09-02T07:15:58;2.30;;;1.60;;
10469;SDS011;5282;47.052;15.458;2022-09-02T07:18:26;2.70;;;1.90;;
10469;SDS011;5282;47.052;15.458;2022-09-02T07:20:54;2.43;;;1.47;;
10469;SDS011;5282;47.052;15.458;2022-09-02T07:23:22;1.80;;;1.80;;
10469;SDS011;5282;47.052;15.458;2022-09-02T07:25:49;2.00;;;1.90;;
10469;SDS011;5282;47.052;15.458;2022-09-02T07:28:16;1.80;;;1.70;;
10469;SDS011;5282;47.052;15.458;2022-09-02T07:30:43;1.70;;;1.60;;
10469;SDS011;5282;47.052;15.458;2022-09-02T07:33:10;2.50;;;1.50;;
10469;SDS011;5282;47.052;15.458;2022-09-02T07:35:39;1.43;;;1.43;;
10469;SDS011;5282;47.052;15.458;2022-09-02T07:38:07;1.60;;;1.57;;
10469;SDS011;5282;47.052;15.458;2022-09-02T07:40:36;3.10;;;2.13;;
10469;SDS011;5282;47.052;15.458;2022-09-02T07:43:05;1.50;;;1.50;;
10469;SDS011;5282;47.052;15.458;2022-09-02T07:45:34;1.70;;;1.60;;
10469;SDS011;5282;47.052;15.458;2022-09-02T07:48:04;2.17;;;1.60;;
10469;SDS011;5282;47.052;15.458;2022-09-02T07:50:32;1.60;;;1.50;;
10469;SDS011;5282;47.052;15.458;2022-09-02T07:53:02;2.17;;;1.50;;
10469;SDS011;5282;47.052;15.458;2022-09-02T07:55:31;1.67;;;1.40;;
10469;SDS011;5282;47.052;15.458;2022-09-02T07:58:00;2.30;;;1.40;;
10469;SDS011;5282;47.052;15.458;2022-09-02T08:00:29;1.53;;;1.53;;
10469;SDS011;5282;47.052;15.458;2022-09-02T08:02:56;1.80;;;1.43;;
10469;SDS011;5282;47.052;15.458;2022-09-02T08:05:25;1.93;;;1.70;;
10469;SDS011;5282;47.052;15.458;2022-09-02T08:07:53;1.77;;;1.67;;
10469;SDS011;5282;47.052;15.458;2022-09-02T08:10:20;2.63;;;1.70;;
10469;SDS011;5282;47.052;15.458;2022-09-02T08:12:51;2.57;;;1.67;;
10469;SDS011;5282;47.052;15.458;2022-09-02T08:15:19;1.70;;;1.60;;
10469;SDS011;5282;47.052;15.458;2022-09-02T08:17:47;2.60;;;2.30;;
10469;SDS011;5282;47.052;15.458;2022-09-02T08:20:15;1.60;;;1.60;;
10469;SDS011;5282;47.052;15.458;2022-09-02T08:22:42;1.40;;;1.40;;
10469;SDS011;5282;47.052;15.458;2022-09-02T08:25:09;1.53;;;1.50;;
10469;SDS011;5282;47.052;15.458;2022-09-02T08:27:36;1.93;;;1.60;;
10469;SDS011;5282;47.052;15.458;2022-09-02T08:30:04;2.00;;;1.40;;
10469;SDS011;5282;47.052;15.458;2022-09-02T08:32:36;1.10;;;1.10;;
10469;SDS011;5282;47.052;15.458;2022-09-02T08:35:05;1.63;;;1.53;;
10469;SDS011;5282;47.052;15.458;2022-09-02T08:37:33;4.33;;;1.70;;
10469;SDS011;5282;47.052;15.458;2022-09-02T08:40:02;1.50;;;1.40;;
10469;SDS011;5282;47.052;15.458;2022-09-02T08:42:32;1.60;;;1.40;;
10469;SDS011;5282;47.052;15.458;2022-09-02T08:45:04;1.60;;;1.60;;
10469;SDS011;5282;47.052;15.458;2022-09-02T08:47:34;1.40;;;1.30;;
10469;SDS011;5282;47.052;15.458;2022-09-02T08:50:05;1.40;;;1.40;;
10469;SDS011;5282;47.052;15.458;2022-09-02T08:52:40;1.40;;;1.30;;
10469;SDS011;5282;47.052;15.458;2022-09-02T08:55:12;1.40;;;1.40;;
10469;SDS011;5282;47.052;15.458;2022-09-02T08:57:45;1.30;;;1.30;;
10469;SDS011;5282;47.052;15.458;2022-09-02T09:00:14;1.20;;;1.20;;
10469;SDS011;5282;47.052;15.458;2022-09-02T09:02:45;2.07;;;1.40;;
10469;SDS011;5282;47.052;15.458;2022-09-02T09:05:27;2.07;;;1.47;;
10469;SDS011;5282;47.052;15.458;2022-09-02T09:08:07;1.07;;;1.07;;
10469;SDS011;5282;47.052;15.458;2022-09-02T09:10:45;0.90;;;0.90;;
10469;SDS011;5282;47.052;15.458;2022-09-02T09:13:35;1.10;;;1.10;;
10469;SDS011;5282;47.052;15.458;2022-09-02T09:16:18;1.50;;;1.27;;
10469;SDS011;5282;47.052;15.458;2022-09-02T09:18:56;1.33;;;1.33;;
10469;SDS011;5282;47.052;15.458;2022-09-02T09:21:30;1.53;;;1.43;;
10469;SDS011;5282;47.052;15.458;2022-09-02T09:23:58;1.30;;;1.30;;
10469;SDS011;5282;47.052;15.458;2022-09-02T09:26:30;1.30;;;1.20;;
10469;SDS011;5282;47.052;15.458;2022-09-02T09:28:59;1.37;;;1.20;;
10469;SDS011;5282;47.052;15.458;2022-09-02T09:31:30;1.30;;;1.20;;
10469;SDS011;5282;47.052;15.458;2022-09-02T09:34:03;1.40;;;1.30;;
10469;SDS011;5282;47.052;15.458;2022-09-02T09:36:43;1.23;;;1.20;;
10469;SDS011;5282;47.052;15.458;2022-09-02T09:39:19;1.50;;;1.20;;
10469;SDS011;5282;47.052;15.458;2022-09-02T09:41:52;1.27;;;1.27;;
10469;SDS011;5282;47.052;15.458;2022-09-02T09:44:33;1.10;;;1.10;;
10469;SDS011;5282;47.052;15.458;2022-09-02T09:47:03;1.33;;;1.20;;
10469;SDS011;5282;47.052;15.458;2022-09-02T09:49:32;1.30;;;1.20;;
10469;SDS011;5282;47.052;15.458;2022-09-02T09:52:01;1.10;;;1.10;;
10469;SDS011;5282;47.052;15.458;2022-09-02T09:54:28;1.00;;;1.00;;
10469;SDS011;5282;47.052;15.458;2022-09-02T09:57:18;1.00;;;1.00;;
10469;SDS011;5282;47.052;15.458;2022-09-02T09:59:47;1.10;;;1.00;;
10469;SDS011;5282;47.052;15.458;2022-09-02T10:02:21;1.23;;;1.20;;
10469;SDS011;5282;47.052;15.458;2022-09-02T10:04:49;1.20;;;1.13;;
10469;SDS011;5282;47.052;15.458;2022-09-02T10:07:36;1.80;;;1.70;;
10469;SDS011;5282;47.052;15.458;2022-09-02T10:10:08;1.20;;;1.17;;
10469;SDS011;5282;47.052;15.458;2022-09-02T10:12:42;1.13;;;1.07;;
10469;SDS011;5282;47.052;15.458;2022-09-02T10:15:10;1.20;;;1.10;;
10469;SDS011;5282;47.052;15.458;2022-09-02T10:17:39;1.10;;;1.10;;
10469;SDS011;5282;47.052;15.458;2022-09-02T10:20:16;1.17;;;1.07;;
10469;SDS011;5282;47.052;15.458;2022-09-02T10:22:59;1.20;;;1.20;;
10469;SDS011;5282;47.052;15.458;2022-09-02T10:25:43;1.17;;;1.17;;
10469;SDS011;5282;47.052;15.458;2022-09-02T10:28:26;1.20;;;1.20;;
10469;SDS011;5282;47.052;15.458;2022-09-02T10:31:06;1.13;;;1.03;;
10469;SDS011;5282;47.052;15.458;2022-09-02T10:33:41;1.20;;;1.10;;
10469;SDS011;5282;47.052;15.458;2022-09-02T10:36:23;1.30;;;1.20;;
10469;SDS011;5282;47.052;15.458;2022-09-02T10:39:02;1.20;;;1.20;;
10469;SDS011;5282;47.052;15.458;2022-09-02T10:41:42;1.37;;;1.27;;
10469;SDS011;5282;47.052;15.458;2022-09-02T10:44:19;1.27;;;1.20;;
10469;SDS011;5282;47.052;15.458;2022-09-02T10:46:53;3.53;;;1.30;;
10469;SDS011;5282;47.052;15.458;2022-09-02T10:49:30;3.57;;;1.40;;
10469;SDS011;5282;47.052;15.458;2022-09-02T10:52:09;1.10;;;1.10;;
10469;SDS011;5282;47.052;15.458;2022-09-02T10:54:54;2.07;;;1.20;;
10469;SDS011;5282;47.052;15.458;2022-09-02T10:57:29;1.60;;;1.10;;
10469;SDS011;5282;47.052;15.458;2022-09-02T11:00:00;1.03;;;1.03;;
10469;SDS011;5282;47.052;15.458;2022-09-02T11:02:33;1.10;;;1.10;;
10469;SDS011;5282;47.052;15.458;2022-09-02T11:05:06;1.53;;;1.17;;
10469;SDS011;5282;47.052;15.458;2022-09-02T11:07:39;1.23;;;1.20;;
10469;SDS011;5282;47.052;15.458;2022-09-02T11:10:14;1.40;;;1.10;;
10469;SDS011;5282;47.052;15.458;2022-09-02T11:12:46;1.15;;;1.15;;
10469;SDS011;5282;47.052;15.458;2022-09-02T11:15:22;1.60;;;1.10;;
10469;SDS011;5282;47.052;15.458;2022-09-02T11:17:59;0.90;;;0.90;;
10469;SDS011;5282;47.052;15.458;2022-09-02T11:20:37;1.42;;;1.30;;
10469;SDS011;5282;47.052;15.458;2022-09-02T11:23:12;4.30;;;1.20;;
10469;SDS011;5282;47.052;15.458;2022-09-02T11:25:51;2.65;;;1.00;;
10469;SDS011;5282;47.052;15.458;2022-09-02T11:28:23;1.40;;;1.40;;
10469;SDS011;5282;47.052;15.458;2022-09-02T11:31:00;1.25;;;1.20;;
10469;SDS011;5282;47.052;15.458;2022-09-02T11:33:34;1.00;;;1.00;;
10469;SDS011;5282;47.052;15.458;2022-09-02T11:36:11;0.90;;;0.90;;
10469;SDS011;5282;47.052;15.458;2022-09-02T11:38:39;1.10;;;1.10;;
10469;SDS011;5282;47.052;15.458;2022-09-02T11:41:19;0.93;;;0.93;;
10469;SDS011;5282;47.052;15.458;2022-09-02T11:44:12;1.13;;;1.13;;
10469;SDS011;5282;47.052;15.458;2022-09-02T11:46:57;1.20;;;1.10;;
10469;SDS011;5282;47.052;15.458;2022-09-02T11:49:40;1.30;;;1.10;;
10469;SDS011;5282;47.052;15.458;2022-09-02T11:52:32;1.20;;;1.20;;
10469;SDS011;5282;47.052;15.458;2022-09-02T11:55:15;1.50;;;1.40;;
10469;SDS011;5282;47.052;15.458;2022-09-02T11:57:51;1.50;;;1.40;;
10469;SDS011;5282;47.052;15.458;2022-09-02T12:00:27;1.00;;;1.00;;
10469;SDS011;5282;47.052;15.458;2022-09-02T12:02:58;1.00;;;1.00;;
10469;SDS011;5282;47.052;15.458;2022-09-02T12:05:48;1.30;;;1.30;;
10469;SDS011;5282;47.052;15.458;2022-09-02T12:11:35;1.95;;;1.20;;
10469;SDS011;5282;47.052;15.458;2022-09-02T12:14:08;2.17;;;1.10;;
10469;SDS011;5282;47.052;15.458;2022-09-02T12:16:44;2.47;;;1.02;;
10469;SDS011;5282;47.052;15.458;2022-09-02T12:19:31;1.20;;;1.20;;
10469;SDS011;5282;47.052;15.458;2022-09-02T12:22:24;1.10;;;1.10;;
10469;SDS011;5282;47.052;15.458;2022-09-02T12:24:57;1.20;;;1.10;;
10469;SDS011;5282;47.052;15.458;2022-09-02T12:27:27;1.08;;;1.08;;
10469;SDS011;5282;47.052;15.458;2022-09-02T12:29:57;1.30;;;1.20;;
10469;SDS011;5282;47.052;15.458;2022-09-02T12:35:30;2.42;;;1.20;;
10469;SDS011;5282;47.052;15.458;2022-09-02T12:40:52;1.13;;;1.13;;
10469;SDS011;5282;47.052;15.458;2022-09-02T12:43:24;1.50;;;1.23;;
10469;SDS011;5282;47.052;15.458;2022-09-02T12:45:57;1.20;;;1.20;;
10469;SDS011;5282;47.052;15.458;2022-09-02T12:48:35;1.00;;;1.00;;
10469;SDS011;5282;47.052;15.458;2022-09-02T12:51:08;1.17;;;1.17;;
10469;SDS011;5282;47.052;15.458;2022-09-02T12:53:36;1.30;;;1.30;;
10469;SDS011;5282;47.052;15.458;2022-09-02T12:56:15;1.43;;;1.10;;
10469;SDS011;5282;47.052;15.458;2022-09-02T12:58:46;1.27;;;1.17;;
10469;SDS011;5282;47.052;15.458;2022-09-02T13:01:18;1.23;;;1.23;;
10469;SDS011;5282;47.052;15.458;2022-09-02T13:04:01;1.10;;;1.10;;
10469;SDS011;5282;47.052;15.458;2022-09-02T13:06:52;1.00;;;1.00;;
10469;SDS011;5282;47.052;15.458;2022-09-02T13:12:56;1.37;;;1.10;;
10469;SDS011;5282;47.052;15.458;2022-09-02T13:18:39;1.13;;;1.13;;
10469;SDS011;5282;47.052;15.458;2022-09-02T13:21:41;1.37;;;1.20;;
10469;SDS011;5282;47.052;15.458;2022-09-02T13:24:22;2.57;;;1.10;;
10469;SDS011;5282;47.052;15.458;2022-09-02T13:27:21;1.20;;;1.20;;
10469;SDS011;5282;47.052;15.458;2022-09-02T13:30:04;1.17;;;1.17;;
10469;SDS011;5282;47.052;15.458;2022-09-02T13:32:37;2.43;;;1.40;;
10469;SDS011;5282;47.052;15.458;2022-09-02T13:35:07;1.70;;;1.00;;
10469;SDS011;5282;47.052;15.458;2022-09-02T13:37:43;1.20;;;1.20;;
10469;SDS011;5282;47.052;15.458;2022-09-02T13:40:20;1.10;;;1.10;;
10469;SDS011;5282;47.052;15.458;2022-09-02T13:42:50;1.23;;;1.03;;
10469;SDS011;5282;47.052;15.458;2022-09-02T13:45:19;1.27;;;1.17;;
10469;SDS011;5282;47.052;15.458;2022-09-02T13:47:48;1.03;;;1.03;;
10469;SDS011;5282;47.052;15.458;2022-09-02T13:50:19;1.00;;;1.00;;
10469;SDS011;5282;47.052;15.458;2022-09-02T13:52:51;1.07;;;1.07;;
10469;SDS011;5282;47.052;15.458;2022-09-02T13:55:20;1.43;;;1.33;;
10469;SDS011;5282;47.052;15.458;2022-09-02T13:57:50;1.97;;;1.47;;
10469;SDS011;5282;47.052;15.458;2022-09-02T14:00:25;2.70;;;1.20;;
10469;SDS011;5282;47.052;15.458;2022-09-02T14:03:00;1.10;;;1.00;;
10469;SDS011;5282;47.052;15.458;2022-09-02T14:05:31;2.70;;;1.60;;
10469;SDS011;5282;47.052;15.458;2022-09-02T14:08:01;2.37;;;1.00;;
10469;SDS011;5282;47.052;15.458;2022-09-02T14:10:31;1.03;;;1.03;;
10469;SDS011;5282;47.052;15.458;2022-09-02T14:13:03;1.30;;;1.30;;
10469;SDS011;5282;47.052;15.458;2022-09-02T14:15:32;1.93;;;1.03;;
10469;SDS011;5282;47.052;15.458;2022-09-02T14:18:10;1.33;;;1.00;;
10469;SDS011;5282;47.052;15.458;2022-09-02T14:20:50;1.30;;;1.17;;
10469;SDS011;5282;47.052;15.458;2022-09-02T14:23:21;1.90;;;1.20;;
10469;SDS011;5282;47.052;15.458;2022-09-02T14:25:50;1.10;;;1.00;;
10469;SDS011;5282;47.052;15.458;2022-09-02T14:28:19;1.10;;;1.10;;
10469;SDS011;5282;47.052;15.458;2022-09-02T14:30:54;1.07;;;1.00;;
10469;SDS011;5282;47.052;15.458;2022-09-02T14:33:25;1.07;;;1.07;;
10469;SDS011;5282;47.052;15.458;2022-09-02T14:35:56;1.30;;;1.07;;
10469;SDS011;5282;47.052;15.458;2022-09-02T14:38:24;2.27;;;1.10;;
10469;SDS011;5282;47.052;15.458;2022-09-02T14:41:00;1.30;;;1.30;;
10469;SDS011;5282;47.052;15.458;2022-09-02T14:43:29;1.93;;;1.70;;
10469;SDS011;5282;47.052;15.458;2022-09-02T14:46:06;1.20;;;1.20;;
10469;SDS011;5282;47.052;15.458;2022-09-02T14:48:51;1.20;;;1.10;;
10469;SDS011;5282;47.052;15.458;2022-09-02T14:51:25;1.13;;;1.13;;
10469;SDS011;5282;47.052;15.458;2022-09-02T14:54:01;1.13;;;1.13;;
10469;SDS011;5282;47.052;15.458;2022-09-02T14:56:42;1.87;;;1.10;;
10469;SDS011;5282;47.052;15.458;2022-09-02T14:59:14;1.30;;;1.20;;
10469;SDS011;5282;47.052;15.458;2022-09-02T15:01:41;1.00;;;1.00;;
10469;SDS011;5282;47.052;15.458;2022-09-02T15:04:11;1.47;;;1.20;;
10469;SDS011;5282;47.052;15.458;2022-09-02T15:06:41;1.00;;;1.00;;
10469;SDS011;5282;47.052;15.458;2022-09-02T15:09:08;1.10;;;1.10;;
10469;SDS011;5282;47.052;15.458;2022-09-02T15:11:36;1.10;;;1.10;;
10469;SDS011;5282;47.052;15.458;2022-09-02T15:14:04;1.10;;;1.00;;
10469;SDS011;5282;47.052;15.458;2022-09-02T15:16:31;1.20;;;1.20;;
10469;SDS011;5282;47.052;15.458;2022-09-02T15:18:58;1.53;;;1.20;;
10469;SDS011;5282;47.052;15.458;2022-09-02T15:21:26;2.00;;;1.20;;
10469;SDS011;5282;47.052;15.458;2022-09-02T15:23:56;1.10;;;1.10;;
10469;SDS011;5282;47.052;15.458;2022-09-02T15:26:23;1.07;;;1.07;;
10469;SDS011;5282;47.052;15.458;2022-09-02T15:28:50;1.87;;;1.20;;
10469;SDS011;5282;47.052;15.458;2022-09-02T15:31:17;1.20;;;1.20;;
10469;SDS011;5282;47.052;15.458;2022-09-02T15:33:47;1.20;;;1.20;;